Time;durP1;ratioP1;P1;durP2;ratioP2;P2;SDS_P1;SDS_P2;PMS_P1;PMS_P2;Temp;Humidity;BMP_temperature;BMP_pressure;BME280_temperature;BME280_humidity;BME280_pressure;Samples;Min_cycle;Max_cycle;Signal;HPM_P1;HPM_P2
2024/01/23 00:01:31;;;;;;;;;;;6.60;99.90;;;5.85;100.00;98394.13;5038788;28;1484;-71
2024/01/23 00:03:58;;;;;;;;;;;6.60;99.90;;;5.79;100.00;98389.91;5035311;28;1597;-70
2024/01/23 00:06:25;;;;;;;;;;;6.60;99.90;;;6.06;100.00;98383.59;5036581;28;1479;-70
2024/01/23 00:08:53;;;;;;;;;;;6.50;99.90;;;5.95;100.00;98379.44;5040726;28;1962;-71
2024/01/23 00:11:20;;;;;;;;;;;6.50;99.90;;;5.87;100.00;98379.50;5035730;28;1679;-70
2024/01/23 00:13:48;;;;;;;;;;;6.60;99.90;;;6.07;100.00;98403.38;5025354;28;1612;-71
2024/01/23 00:16:15;;;;;;;;;;;6.50;99.90;;;5.96;100.00;98374.28;5037734;28;1983;-71
2024/01/23 00:18:42;;;;;;;;;;;6.60;99.90;;;6.02;100.00;98378.50;5034870;28;1586;-71
2024/01/23 00:21:09;;;;;;;;;;;6.60;99.90;;;5.97;100.00;98388.88;5035645;28;1466;-70
2024/01/23 00:23:36;;;;;;;;;;;6.60;99.90;;;5.99;100.00;98365.66;5034467;28;1446;-71
2024/01/23 00:26:03;;;;;;;;;;;6.60;99.90;;;6.10;100.00;98399.91;5033774;28;1484;-70
2024/01/23 00:28:30;;;;;;;;;;;6.60;99.90;;;6.07;100.00;98372.44;5017253;28;1498;-69
2024/01/23 00:30:57;;;;;;;;;;;6.60;99.90;;;5.92;100.00;98380.31;5033349;28;2060;-71
2024/01/23 00:33:24;;;;;;;;;;;6.60;99.90;;;5.91;100.00;98376.03;5033898;28;1444;-71
2024/01/23 00:35:52;;;;;;;;;;;6.60;99.90;;;6.00;100.00;98381.13;5034441;28;1491;-71
2024/01/23 00:38:18;;;;;;;;;;;6.60;99.90;;;6.10;100.00;98374.13;5043506;28;1898;-70
2024/01/23 00:40:45;;;;;;;;;;;6.60;99.90;;;5.93;100.00;98363.13;5020478;28;1484;-71
2024/01/23 00:43:14;;;;;;;;;;;6.60;99.90;;;6.01;100.00;98372.50;5021093;28;1469;-70
2024/01/23 00:45:41;;;;;;;;;;;6.60;99.90;;;5.99;100.00;98363.09;5031386;28;1515;-71
2024/01/23 00:48:08;;;;;;;;;;;6.60;99.90;;;5.96;100.00;98363.97;5031426;28;1624;-70
2024/01/23 00:50:35;;;;;;;;;;;6.60;99.90;;;5.89;100.00;98395.81;5031147;28;1569;-71
2024/01/23 00:53:02;;;;;;;;;;;6.50;99.90;;;6.07;100.00;98397.38;5019988;28;1630;-70
2024/01/23 00:55:29;;;;;;;;;;;6.60;99.90;;;6.07;100.00;98387.91;5020882;28;1706;-71
2024/01/23 00:57:56;;;;;;;;;;;6.60;99.90;;;5.92;100.00;98385.47;5016959;28;1906;-70
2024/01/23 01:00:22;;;;;;;;;;;6.60;99.90;;;5.93;100.00;98389.75;5039097;28;1399;-71
2024/01/23 01:02:49;;;;;;;;;;;6.60;99.90;;;5.87;100.00;98413.84;5033143;28;1765;-70
2024/01/23 01:05:17;;;;;;;;;;;6.60;99.90;;;5.99;100.00;98401.75;5029081;28;1703;-70
2024/01/23 01:07:43;;;;;;;;;;;6.60;99.90;;;5.82;100.00;98405.31;5034086;28;1435;-70
2024/01/23 01:10:11;;;;;;;;;;;6.60;99.90;;;5.84;100.00;98395.00;5035637;28;1430;-70
2024/01/23 01:12:38;;;;;;;;;;;6.60;99.90;;;5.92;100.00;98415.53;5015794;28;1534;-71
2024/01/23 01:15:05;;;;;;;;;;;6.40;99.90;;;5.92;100.00;98416.38;5029771;28;1516;-70
2024/01/23 01:17:32;;;;;;;;;;;6.50;99.90;;;5.84;100.00;98416.47;5029420;28;1910;-71
2024/01/23 01:19:59;;;;;;;;;;;6.50;99.90;;;5.91;100.00;98421.53;5028433;28;1706;-71
2024/01/23 01:22:26;;;;;;;;;;;6.50;99.90;;;5.78;100.00;98426.81;5019865;28;1460;-71
2024/01/23 01:24:53;;;;;;;;;;;6.40;99.90;;;5.74;100.00;98432.88;5035797;28;1408;-70
2024/01/23 01:27:20;;;;;;;;;;;6.50;99.90;;;5.84;100.00;98419.03;5037181;28;1640;-71
2024/01/23 01:29:47;;;;;;;;;;;6.50;99.90;;;5.89;100.00;98436.19;5021858;28;1604;-69
2024/01/23 01:32:14;;;;;;;;;;;6.50;99.90;;;5.77;100.00;98419.09;5040592;28;1380;-71
2024/01/23 01:34:41;;;;;;;;;;;6.50;99.90;;;5.64;100.00;98413.22;5020284;28;1507;-71
2024/01/23 01:37:08;;;;;;;;;;;6.40;99.90;;;5.67;100.00;98415.78;5041071;28;1914;-71
2024/01/23 01:39:35;;;;;;;;;;;6.40;99.90;;;5.73;100.00;98412.31;5037346;28;1469;-72
2024/01/23 01:42:02;;;;;;;;;;;6.50;99.90;;;5.78;100.00;98433.72;5035481;28;1952;-71
2024/01/23 01:44:32;;;;;;;;;;;6.50;99.90;;;5.82;100.00;98443.97;5036859;28;1463;-70
2024/01/23 01:46:59;;;;;;;;;;;6.40;99.90;;;5.80;100.00;98429.41;5040156;28;1395;-71
2024/01/23 01:49:26;;;;;;;;;;;6.50;99.90;;;5.86;100.00;98434.47;5036321;28;1598;-71
2024/01/23 01:51:53;;;;;;;;;;;6.40;99.90;;;5.82;100.00;98445.69;5034182;28;1383;-71
2024/01/23 01:54:21;;;;;;;;;;;6.40;99.90;;;5.56;100.00;98457.06;5043397;28;1387;-71
2024/01/23 01:56:50;;;;;;;;;;;6.40;99.90;;;5.37;100.00;98452.94;5039212;28;1989;-71
2024/01/23 01:59:18;;;;;;;;;;;6.30;99.90;;;5.51;100.00;98456.25;5024664;28;1381;-72
2024/01/23 02:01:45;;;;;;;;;;;6.20;99.90;;;5.52;100.00;98451.94;5042134;28;1227;-71
2024/01/23 02:04:13;;;;;;;;;;;6.20;99.90;;;5.32;100.00;98465.84;5043223;28;1435;-71
2024/01/23 02:06:40;;;;;;;;;;;6.10;99.90;;;5.34;100.00;98474.44;5038492;28;1281;-71
2024/01/23 02:09:07;;;;;;;;;;;6.10;99.90;;;5.37;100.00;98481.28;5042429;28;1247;-71
2024/01/23 02:11:34;;;;;;;;;;;6.10;99.90;;;5.37;100.00;98487.25;5041870;28;1230;-71
2024/01/23 02:14:01;;;;;;;;;;;6.10;99.90;;;5.40;100.00;98482.09;5042185;28;1382;-70
2024/01/23 02:16:28;;;;;;;;;;;6.10;99.90;;;5.30;100.00;98498.47;5044611;28;1906;-71
2024/01/23 02:18:55;;;;;;;;;;;6.10;99.90;;;5.20;100.00;98509.69;5042119;28;1459;-71
2024/01/23 02:21:22;;;;;;;;;;;6.00;99.90;;;5.26;100.00;98504.50;5038754;28;1598;-70
2024/01/23 02:23:49;;;;;;;;;;;5.90;99.90;;;5.27;100.00;98513.94;5042322;28;1571;-71
2024/01/23 02:26:16;;;;;;;;;;;6.00;99.90;;;5.19;100.00;98555.16;5043523;28;1259;-71
2024/01/23 02:28:42;;;;;;;;;;;6.00;99.90;;;5.33;100.00;98531.06;5036294;28;1435;-71
2024/01/23 02:31:09;;;;;;;;;;;6.00;99.90;;;5.33;100.00;98534.47;5042388;28;1567;-70
2024/01/23 02:33:36;;;;;;;;;;;6.00;99.90;;;5.22;100.00;98518.25;5041217;28;1218;-70
2024/01/23 02:36:04;;;;;;;;;;;6.00;99.90;;;5.20;100.00;98515.72;5040784;28;1238;-71
2024/01/23 02:38:30;;;;;;;;;;;6.00;99.90;;;5.20;100.00;98527.69;5040308;28;2011;-70
2024/01/23 02:40:58;;;;;;;;;;;6.00;99.90;;;5.12;100.00;98517.47;5042328;28;1223;-71
2024/01/23 02:43:24;;;;;;;;;;;6.10;99.90;;;5.18;100.00;98538.03;5026828;28;1219;-70
2024/01/23 02:45:53;;;;;;;;;;;5.90;99.90;;;5.28;100.00;98536.25;5044576;28;1387;-70
2024/01/23 02:48:20;;;;;;;;;;;6.00;99.90;;;5.19;100.00;98529.41;5041154;28;1462;-70
2024/01/23 02:50:47;;;;;;;;;;;6.00;99.90;;;5.28;100.00;98545.69;5043010;28;1254;-71
2024/01/23 02:53:14;;;;;;;;;;;6.00;99.90;;;5.29;100.00;98553.41;5043653;28;1362;-71
2024/01/23 02:55:41;;;;;;;;;;;6.00;99.90;;;5.48;100.00;98559.28;5042255;28;1288;-70
2024/01/23 02:58:09;;;;;;;;;;;6.10;99.90;;;5.53;100.00;98547.22;5027459;28;1981;-71
2024/01/23 03:00:38;;;;;;;;;;;6.20;99.90;;;5.58;100.00;98549.78;5046713;28;1400;-71
2024/01/23 03:03:06;;;;;;;;;;;6.20;99.90;;;5.64;100.00;98553.16;5041972;28;1267;-72
2024/01/23 03:05:33;;;;;;;;;;;6.20;99.90;;;5.60;100.00;98554.06;5030103;28;1272;-71
2024/01/23 03:08:00;;;;;;;;;;;6.20;99.90;;;5.63;100.00;98558.31;5028481;28;1345;-71
2024/01/23 03:10:27;;;;;;;;;;;6.20;99.90;;;5.49;100.00;98548.13;5040081;28;1319;-70
2024/01/23 03:12:54;;;;;;;;;;;6.20;99.90;;;5.56;100.00;98548.94;5041142;28;1094;-70
2024/01/23 03:15:21;;;;;;;;;;;6.10;99.90;;;5.61;100.00;98547.16;5039488;28;1296;-70
2024/01/23 03:17:49;;;;;;;;;;;6.20;99.90;;;5.60;100.00;98572.06;5042707;28;1917;-71
2024/01/23 03:20:16;;;;;;;;;;;6.20;99.90;;;5.52;100.00;98547.22;5042238;28;1242;-71
2024/01/23 03:22:44;;;;;;;;;;;6.20;99.90;;;5.43;100.00;98536.16;5041903;28;1346;-70
2024/01/23 03:25:11;;;;;;;;;;;6.20;99.90;;;5.48;100.00;98554.16;5027756;28;1337;-71
2024/01/23 03:27:37;;;;;;;;;;;6.30;99.90;;;5.48;100.00;98572.16;5042160;28;1382;-70
2024/01/23 03:30:05;;;;;;;;;;;6.20;99.90;;;5.57;100.00;98581.56;5028477;28;1235;-69
2024/01/23 03:32:32;;;;;;;;;;;6.30;99.90;;;5.53;100.00;98578.13;5038378;28;1318;-71
2024/01/23 03:34:59;;;;;;;;;;;6.20;99.90;;;5.56;100.00;98587.56;5039462;28;1267;-71
2024/01/23 03:37:26;;;;;;;;;;;6.20;99.90;;;5.48;100.00;98597.06;5040197;28;1918;-71
2024/01/23 03:39:53;;;;;;;;;;;6.20;99.90;;;5.45;100.00;98585.03;5028455;28;1222;-71
2024/01/23 03:42:20;;;;;;;;;;;6.20;99.90;;;5.32;100.00;98591.16;5037522;28;1237;-70
2024/01/23 03:44:47;;;;;;;;;;;6.10;99.90;;;5.44;100.00;98604.78;5043116;28;1332;-71
2024/01/23 03:47:14;;;;;;;;;;;6.20;99.90;;;5.39;100.00;98597.97;5039812;28;1988;-70
2024/01/23 03:49:41;;;;;;;;;;;6.10;99.90;;;5.29;100.00;98604.03;5038781;28;1587;-71
2024/01/23 03:52:08;;;;;;;;;;;6.10;99.90;;;5.29;100.00;98588.56;5039943;28;1326;-71
2024/01/23 03:54:36;;;;;;;;;;;6.10;99.90;;;5.31;100.00;98613.44;5042799;28;1342;-71
2024/01/23 03:57:03;;;;;;;;;;;6.10;99.90;;;5.37;100.00;98623.72;5043995;28;1902;-70
2024/01/23 03:59:30;;;;;;;;;;;6.10;99.90;;;5.32;100.00;98610.03;5041154;28;1186;-71
2024/01/23 04:01:56;;;;;;;;;;;6.10;99.90;;;5.42;100.00;98629.69;5028058;28;1250;-71
2024/01/23 04:04:23;;;;;;;;;;;6.10;99.90;;;5.42;100.00;98663.16;5023067;28;1280;-71
2024/01/23 04:06:50;;;;;;;;;;;6.10;99.90;;;5.44;100.00;98658.88;5041245;28;1329;-71
2024/01/23 04:09:17;;;;;;;;;;;6.10;99.90;;;5.33;100.00;98637.47;5042207;28;1132;-71
2024/01/23 04:11:46;;;;;;;;;;;6.10;99.90;;;5.49;100.00;98656.28;5041016;28;1226;-70
2024/01/23 04:14:13;;;;;;;;;;;6.20;99.90;;;5.48;100.00;98649.41;5027155;28;1300;-71
2024/01/23 04:16:40;;;;;;;;;;;6.20;99.90;;;5.65;100.00;98649.31;5041342;28;1226;-71
2024/01/23 04:19:07;;;;;;;;;;;6.20;99.90;;;5.52;100.00;98651.13;5042570;28;1983;-70
2024/01/23 04:21:34;;;;;;;;;;;6.20;99.90;;;5.57;100.00;98671.69;5025159;28;1388;-71
2024/01/23 04:24:01;;;;;;;;;;;6.30;99.90;;;5.51;100.00;98657.13;5039955;28;1291;-71
2024/01/23 04:26:28;;;;;;;;;;;6.30;99.90;;;5.67;100.00;98657.91;5041216;28;1341;-71
2024/01/23 04:28:55;;;;;;;;;;;6.30;99.90;;;5.64;100.00;98663.91;5039209;28;1382;-71
2024/01/23 04:31:22;;;;;;;;;;;6.20;99.90;;;5.58;100.00;98670.81;5039884;28;1254;-71
2024/01/23 04:33:49;;;;;;;;;;;6.30;99.90;;;5.58;100.00;98666.53;5041744;28;1244;-71
2024/01/23 04:36:17;;;;;;;;;;;6.20;99.90;;;5.55;100.00;98676.00;5044038;28;1268;-70
2024/01/23 04:38:43;;;;;;;;;;;6.30;99.90;;;5.63;100.00;98672.53;5042693;28;1907;-70
2024/01/23 04:41:11;;;;;;;;;;;6.30;99.90;;;5.75;100.00;98670.75;5037394;28;1206;-71
2024/01/23 04:43:38;;;;;;;;;;;6.20;99.90;;;5.60;100.00;98685.41;5040497;28;1233;-70
2024/01/23 04:46:05;;;;;;;;;;;6.20;99.90;;;5.63;100.00;98684.53;5026642;28;1345;-71
2024/01/23 04:48:37;;;;;;;;;;;6.20;99.90;;;5.57;100.00;98676.84;5024298;28;1406;-70
2024/01/23 04:51:05;;;;;;;;;;;6.20;99.90;;;5.50;100.00;98662.31;5037209;28;1375;-71
2024/01/23 04:53:32;;;;;;;;;;;6.20;99.90;;;5.44;100.00;98663.16;5039501;28;1262;-70
2024/01/23 04:56:00;;;;;;;;;;;6.20;99.90;;;5.42;100.00;98677.75;5039584;28;1210;-71
2024/01/23 04:58:27;;;;;;;;;;;6.10;99.90;;;5.18;100.00;98663.28;5038660;28;1930;-71
2024/01/23 05:00:54;;;;;;;;;;;6.10;99.90;;;5.20;100.00;98661.53;5040300;28;1211;-70
2024/01/23 05:03:24;;;;;;;;;;;6.00;99.90;;;5.09;100.00;98666.75;5041264;28;1491;-70
2024/01/23 05:05:51;;;;;;;;;;;6.00;99.90;;;5.21;100.00;98669.25;5022887;28;1294;-71
2024/01/23 05:08:18;;;;;;;;;;;5.90;99.90;;;5.08;100.00;98679.59;5040701;28;1310;-71
2024/01/23 05:10:45;;;;;;;;;;;5.90;99.90;;;5.12;100.00;98697.59;5039394;28;1604;-70
2024/01/23 05:13:12;;;;;;;;;;;5.80;99.90;;;5.18;100.00;98704.47;5040134;28;1381;-71
2024/01/23 05:15:39;;;;;;;;;;;5.90;99.90;;;5.02;100.00;98694.22;5009888;28;1260;-71
2024/01/23 05:18:07;;;;;;;;;;;5.80;99.90;;;5.00;100.00;98716.50;5025977;28;1987;-71
2024/01/23 05:20:35;;;;;;;;;;;5.80;99.90;;;5.02;100.00;98701.94;5036330;28;1394;-71
2024/01/23 05:23:05;;;;;;;;;;;5.80;99.90;;;5.05;100.00;98713.94;5038944;28;1402;-71
2024/01/23 05:25:33;;;;;;;;;;;5.80;99.90;;;5.15;100.00;98717.31;5026453;28;1347;-70
2024/01/23 05:28:00;;;;;;;;;;;5.80;99.90;;;5.14;100.00;98725.91;5022223;28;1299;-70
2024/01/23 05:30:27;;;;;;;;;;;5.80;99.90;;;5.08;100.00;98742.22;5041676;28;1400;-71
2024/01/23 05:32:54;;;;;;;;;;;5.80;99.90;;;5.09;100.00;98728.50;5020859;28;1276;-70
2024/01/23 05:35:21;;;;;;;;;;;5.80;99.90;;;5.00;100.00;98734.53;5040447;28;1403;-70
2024/01/23 05:37:47;;;;;;;;;;;5.80;99.90;;;5.12;100.00;98761.09;5039617;28;1902;-70
2024/01/23 05:40:15;;;;;;;;;;;5.80;99.90;;;5.15;100.00;98754.22;5038241;28;1556;-70
2024/01/23 05:42:42;;;;;;;;;;;5.80;99.90;;;5.11;100.00;98774.81;5036812;28;1406;-70
2024/01/23 05:45:09;;;;;;;;;;;5.70;99.90;;;5.11;100.00;98755.09;5039857;28;1383;-71
2024/01/23 05:47:36;;;;;;;;;;;5.70;99.90;;;4.86;100.00;98767.13;5025572;28;1401;-71
2024/01/23 05:50:03;;;;;;;;;;;5.60;99.90;;;4.92;100.00;98772.25;5024799;28;1600;-70
2024/01/23 05:52:30;;;;;;;;;;;5.70;99.90;;;5.01;100.00;98776.53;5040429;28;1342;-71
2024/01/23 05:54:59;;;;;;;;;;;5.70;99.90;;;4.98;100.00;98799.72;5040386;28;1591;-70
2024/01/23 05:57:26;;;;;;;;;;;5.70;99.90;;;4.97;100.00;98791.16;5038061;28;1898;-71
2024/01/23 05:59:54;;;;;;;;;;;5.70;99.90;;;4.90;100.00;98804.00;5039522;28;1379;-70
2024/01/23 06:02:21;;;;;;;;;;;5.70;99.90;;;4.78;100.00;98803.13;5039489;28;1378;-70
2024/01/23 06:04:48;;;;;;;;;;;5.70;99.90;;;4.97;100.00;98826.28;5038583;28;1382;-71
2024/01/23 06:07:15;;;;;;;;;;;5.60;99.90;;;4.82;100.00;98804.84;5038311;28;1302;-71
2024/01/23 06:09:42;;;;;;;;;;;5.60;99.90;;;4.78;100.00;98823.72;5038054;28;1553;-71
2024/01/23 06:12:09;;;;;;;;;;;5.60;99.90;;;4.76;100.00;98814.28;5039009;28;1287;-71
2024/01/23 06:14:36;;;;;;;;;;;5.60;99.90;;;4.74;100.00;98829.72;5037779;28;1477;-71
2024/01/23 06:17:03;;;;;;;;;;;5.60;99.90;;;4.82;100.00;98837.44;5040335;28;1890;-71
2024/01/23 06:19:30;;;;;;;;;;;5.50;99.90;;;4.85;100.00;98840.00;5038444;28;1987;-70
2024/01/23 06:21:57;;;;;;;;;;;5.50;99.90;;;4.59;100.00;98851.13;5038995;28;1348;-71
2024/01/23 06:24:24;;;;;;;;;;;5.50;99.90;;;4.70;100.00;98861.44;5040742;28;1343;-70
2024/01/23 06:26:51;;;;;;;;;;;5.40;99.90;;;4.76;100.00;98851.16;5025199;28;1607;-71
2024/01/23 06:29:17;;;;;;;;;;;5.50;99.90;;;4.78;100.00;98853.72;5038562;28;1209;-71
2024/01/23 06:31:44;;;;;;;;;;;5.40;99.90;;;4.78;100.00;98852.00;5039045;28;1543;-70
2024/01/23 06:34:13;;;;;;;;;;;5.40;99.90;;;4.74;100.00;98864.88;5037056;28;1536;-70
2024/01/23 06:36:46;;;;;;;;;;;5.40;99.90;;;4.76;100.00;98871.72;5039608;28;1528;-71
2024/01/23 06:39:13;;;;;;;;;;;5.40;99.90;;;4.65;100.00;98864.84;5028874;28;1983;-71
2024/01/23 06:41:41;;;;;;;;;;;5.40;99.90;;;4.76;100.00;98881.16;5037394;28;1228;-71
2024/01/23 06:44:07;;;;;;;;;;;5.40;99.90;;;4.48;100.00;98891.38;5036159;28;1294;-71
2024/01/23 06:46:34;;;;;;;;;;;5.40;99.90;;;4.73;100.00;98894.03;5037168;28;1449;-70
2024/01/23 06:49:01;;;;;;;;;;;5.40;99.90;;;4.76;100.00;98909.47;5018959;28;1377;-71
2024/01/23 06:51:28;;;;;;;;;;;5.40;99.90;;;4.76;100.00;98914.59;5027783;28;1333;-70
2024/01/23 06:53:55;;;;;;;;;;;5.50;99.90;;;4.88;100.00;98914.66;5023217;28;1407;-70
2024/01/23 06:56:27;;;;;;;;;;;5.50;99.90;;;5.02;100.00;98923.22;5041203;28;1195;-70
2024/01/23 06:58:53;;;;;;;;;;;5.60;99.90;;;4.97;100.00;98927.53;5043380;28;1930;-70
2024/01/23 07:01:20;;;;;;;;;;;5.50;99.90;;;5.00;100.00;98924.94;5041123;28;1226;-71
2024/01/23 07:03:48;;;;;;;;;;;5.60;99.90;;;4.90;100.00;98927.50;5039031;28;1284;-70
2024/01/23 07:06:15;;;;;;;;;;;5.70;99.90;;;4.87;100.00;98942.94;5041757;28;1367;-70
2024/01/23 07:08:42;;;;;;;;;;;5.60;99.90;;;4.77;100.00;98944.63;5039989;28;1448;-70
2024/01/23 07:11:09;;;;;;;;;;;5.60;99.90;;;4.75;100.00;98949.75;5012448;28;1454;-71
2024/01/23 07:13:36;;;;;;;;;;;5.60;99.90;;;4.69;100.00;98951.44;5043309;28;1378;-71
2024/01/23 07:16:03;;;;;;;;;;;5.60;99.90;;;4.69;100.00;98956.59;5043074;28;1112;-71
2024/01/23 07:18:30;;;;;;;;;;;5.60;99.90;;;4.71;100.00;98978.91;5028822;28;1910;-71
2024/01/23 07:20:57;;;;;;;;;;;5.50;99.90;;;4.68;100.00;98978.03;5040087;28;1250;-71
2024/01/23 07:23:24;;;;;;;;;;;5.50;99.90;;;4.78;100.00;98992.63;5043410;28;1321;-71
2024/01/23 07:25:50;;;;;;;;;;;5.50;99.90;;;4.79;100.00;98996.94;5040556;28;1306;-71
2024/01/23 07:28:17;;;;;;;;;;;5.60;99.90;;;4.86;100.00;99006.41;5027922;28;1501;-69
2024/01/23 07:31:04;;;;;;;;;;;5.60;99.90;;;4.89;100.00;99014.13;5041103;28;1543;-71
2024/01/23 07:33:31;;;;;;;;;;;5.60;99.90;;;4.82;100.00;99014.94;5040599;28;1238;-69
2024/01/23 07:35:58;;;;;;;;;;;5.70;99.90;;;5.08;100.00;99021.88;5027551;28;1219;-70
2024/01/23 07:38:25;;;;;;;;;;;5.60;99.90;;;5.00;100.00;99025.31;5044064;28;2002;-69
2024/01/23 07:40:52;;;;;;;;;;;5.60;99.90;;;5.09;100.00;99034.78;5041351;28;1323;-70
2024/01/23 07:43:29;;;;;;;;;;;5.70;99.90;;;4.98;100.00;99036.44;5038854;28;1307;-71
2024/01/23 07:45:55;;;;;;;;;;;5.70;99.90;;;5.03;100.00;99029.59;5024724;28;1434;-71
2024/01/23 07:48:23;;;;;;;;;;;5.80;99.90;;;4.91;100.00;99037.28;5044437;28;1358;-71
2024/01/23 07:50:50;;;;;;;;;;;5.70;99.90;;;5.05;100.00;99037.31;5039978;28;1228;-71
2024/01/23 07:53:17;;;;;;;;;;;5.70;99.90;;;4.85;100.00;99045.81;5041685;28;1306;-71
2024/01/23 07:55:44;;;;;;;;;;;5.80;99.90;;;4.88;100.00;99045.84;5023310;28;1253;-69
2024/01/23 07:58:12;;;;;;;;;;;5.80;99.90;;;4.79;100.00;99049.25;5040219;28;1902;-72
2024/01/23 08:00:41;;;;;;;;;;;5.70;99.90;;;4.77;100.00;99050.94;5038797;28;1365;-72
2024/01/23 08:03:08;;;;;;;;;;;5.50;99.90;;;4.74;100.00;99058.63;5040917;28;1199;-71
2024/01/23 08:05:35;;;;;;;;;;;5.40;99.90;;;4.61;100.00;99059.44;5040170;28;1572;-72
2024/01/23 08:08:02;;;;;;;;;;;5.40;99.90;;;4.66;100.00;99062.91;5040021;28;1500;-72
2024/01/23 08:10:30;;;;;;;;;;;5.40;99.90;;;4.92;100.00;99052.72;5037465;28;1179;-72
2024/01/23 08:12:57;;;;;;;;;;;5.50;99.90;;;4.98;100.00;99057.88;5040491;28;1267;-72
2024/01/23 08:15:24;;;;;;;;;;;5.50;99.90;;;4.90;100.00;99048.41;5041034;28;1418;-71
2024/01/23 08:17:51;;;;;;;;;;;5.60;99.90;;;5.05;100.00;99069.06;5028462;28;1069;-72
2024/01/23 08:20:18;;;;;;;;;;;5.60;99.90;;;4.85;100.00;99053.53;5041009;28;1973;-71
2024/01/23 08:22:45;;;;;;;;;;;5.60;99.90;;;4.84;100.00;99074.13;5037795;28;1152;-72
2024/01/23 08:25:12;;;;;;;;;;;5.60;99.90;;;4.80;100.00;99070.69;5040917;28;1376;-72
2024/01/23 08:27:39;;;;;;;;;;;5.60;99.90;;;4.96;100.00;99084.47;5040957;28;1263;-72
2024/01/23 08:30:08;;;;;;;;;;;5.60;99.90;;;4.99;100.00;99085.31;5026050;28;1496;-72
2024/01/23 08:32:35;;;;;;;;;;;5.60;99.90;;;4.99;100.00;99084.47;5039357;28;1218;-72
2024/01/23 08:35:02;;;;;;;;;;;5.70;99.90;;;5.03;100.00;99081.91;5040283;28;1283;-72
2024/01/23 08:37:29;;;;;;;;;;;5.70;99.90;;;5.05;100.00;99084.50;5037708;28;1199;-71
2024/01/23 08:39:56;;;;;;;;;;;5.70;99.90;;;4.88;100.00;99092.16;5040067;28;1989;-71
2024/01/23 08:42:23;;;;;;;;;;;5.70;99.90;;;5.11;100.00;99096.53;5039559;28;1059;-73
2024/01/23 08:44:50;;;;;;;;;;;5.80;99.90;;;5.01;100.00;99100.78;5025943;28;1340;-71
2024/01/23 08:47:17;;;;;;;;;;;5.80;99.90;;;5.06;100.00;99111.94;5037572;28;1271;-71
2024/01/23 08:49:44;;;;;;;;;;;5.90;99.90;;;5.33;100.00;99120.63;5040374;28;1282;-71
2024/01/23 08:52:11;;;;;;;;;;;5.90;99.90;;;5.24;100.00;99127.50;5040193;28;1192;-71
2024/01/23 08:54:39;;;;;;;;;;;5.90;99.90;;;5.35;100.00;99124.06;5026651;28;1516;-72
2024/01/23 08:57:06;;;;;;;;;;;6.00;99.90;;;5.41;100.00;99136.97;5039660;28;1211;-71
2024/01/23 08:59:37;;;;;;;;;;;6.00;99.90;;;5.32;100.00;99136.94;5037829;28;1999;-71
2024/01/23 09:02:04;;;;;;;;;;;6.10;99.90;;;5.46;100.00;99122.41;5038354;28;1517;-72
2024/01/23 09:04:31;;;;;;;;;;;6.10;99.90;;;5.53;100.00;99146.47;5040056;28;1296;-71
2024/01/23 09:06:58;;;;;;;;;;;6.10;99.90;;;5.60;100.00;99143.88;5019123;28;1283;-72
2024/01/23 09:09:25;;;;;;;;;;;6.10;99.90;;;5.69;100.00;99153.34;5040144;28;1163;-72
2024/01/23 09:11:52;;;;;;;;;;;6.10;99.90;;;5.53;100.00;99133.56;5038865;28;1093;-71
2024/01/23 09:14:18;;;;;;;;;;;6.10;99.90;;;5.53;100.00;99154.19;5038254;28;1360;-71
2024/01/23 09:16:46;;;;;;;;;;;6.20;99.90;;;5.58;100.00;99152.47;5039866;28;1235;-72
2024/01/23 09:19:14;;;;;;;;;;;6.10;99.90;;;5.69;100.00;99144.78;5035003;28;1914;-71
2024/01/23 09:21:41;;;;;;;;;;;6.10;99.90;;;5.52;100.00;99144.72;5035417;28;1041;-72
2024/01/23 09:24:08;;;;;;;;;;;6.20;99.90;;;5.71;100.00;99159.38;5034399;28;1515;-72
2024/01/23 09:26:34;;;;;;;;;;;6.20;99.90;;;5.50;100.00;99157.63;5033461;28;1464;-72
2024/01/23 09:29:01;;;;;;;;;;;6.20;99.90;;;5.53;100.00;99147.31;5039415;28;1388;-72
2024/01/23 09:31:28;;;;;;;;;;;6.20;99.90;;;5.44;100.00;99152.44;5033744;28;1453;-71
2024/01/23 09:33:57;;;;;;;;;;;6.20;99.90;;;5.59;100.00;99172.25;5036560;28;1399;-72
2024/01/23 09:36:24;;;;;;;;;;;6.20;99.90;;;5.64;100.00;99163.66;5026070;28;1128;-70
2024/01/23 09:38:51;;;;;;;;;;;6.30;99.90;;;5.86;100.00;99161.09;5037497;28;1902;-70
2024/01/23 09:41:19;;;;;;;;;;;6.30;99.90;;;5.79;100.00;99170.56;5033304;28;1552;-71
2024/01/23 09:43:46;;;;;;;;;;;6.40;99.90;;;6.11;100.00;99174.91;5034964;28;1855;-71
2024/01/23 09:46:13;;;;;;;;;;;6.30;99.90;;;6.07;100.00;99178.38;5036275;28;1410;-71
2024/01/23 09:48:40;;;;;;;;;;;6.40;99.90;;;5.81;100.00;99157.66;5027136;28;1361;-71
2024/01/23 09:51:13;;;;;;;;;;;6.40;99.90;;;5.86;100.00;99181.72;5022647;28;1391;-71
2024/01/23 09:53:43;;;;;;;;;;;6.40;99.90;;;5.93;100.00;99180.91;5038055;28;1480;-71
2024/01/23 09:56:11;;;;;;;;;;;6.40;99.90;;;6.03;100.00;99184.38;5036318;28;1483;-71
2024/01/23 09:58:38;;;;;;;;;;;6.40;99.90;;;6.12;100.00;99183.53;5033984;28;1914;-71
2024/01/23 10:01:05;;;;;;;;;;;6.50;99.90;;;6.29;100.00;99186.97;5037205;28;1032;-71
2024/01/23 10:03:34;;;;;;;;;;;6.60;99.90;;;6.17;100.00;99181.81;5036483;28;1361;-71
2024/01/23 10:06:01;;;;;;;;;;;6.70;99.90;;;5.96;100.00;99183.50;5036326;28;1118;-70
2024/01/23 10:08:28;;;;;;;;;;;6.80;99.90;;;5.96;100.00;99173.19;5039904;28;1320;-71
2024/01/23 10:10:56;;;;;;;;;;;6.80;99.90;;;6.14;100.00;99181.81;5033087;28;1252;-69
2024/01/23 10:13:24;;;;;;;;;;;6.80;99.90;;;6.30;100.00;99172.38;5039013;28;1374;-70
2024/01/23 10:15:57;;;;;;;;;;;6.80;99.90;;;6.28;100.00;99170.66;5038229;28;1359;-70
2024/01/23 10:18:25;;;;;;;;;;;6.80;99.90;;;6.44;100.00;99166.34;5025514;28;1770;-69
2024/01/23 10:20:55;;;;;;;;;;;6.90;99.90;;;6.28;100.00;99172.38;5026504;28;1910;-69
2024/01/23 10:23:22;;;;;;;;;;;7.00;99.90;;;6.38;100.00;99165.50;5036066;28;1401;-70
2024/01/23 10:25:49;;;;;;;;;;;6.90;99.90;;;6.61;100.00;99148.25;5039503;28;1349;-70
2024/01/23 10:28:17;;;;;;;;;;;7.00;99.90;;;6.68;100.00;99154.28;5026040;28;1049;-70
2024/01/23 10:30:45;;;;;;;;;;;6.90;99.90;;;6.27;100.00;99143.16;5042254;28;1016;-70
2024/01/23 10:33:12;;;;;;;;;;;7.00;99.90;;;6.16;100.00;99139.72;5036165;28;1313;-70
2024/01/23 10:35:43;;;;;;;;;;;6.90;99.90;;;6.06;100.00;99143.13;5040580;28;1327;-70
2024/01/23 10:38:14;;;;;;;;;;;6.80;99.90;;;6.03;100.00;99135.41;5040317;28;1624;-70
2024/01/23 10:40:41;;;;;;;;;;;6.70;99.90;;;5.75;100.00;99142.22;5035363;28;1906;-70
2024/01/23 10:43:08;;;;;;;;;;;6.40;99.90;;;5.36;100.00;99148.97;5042155;28;1390;-70
2024/01/23 10:45:36;;;;;;;;;;;6.30;99.90;;;5.30;100.00;99157.53;5042875;28;1260;-70
2024/01/23 10:48:06;;;;;;;;;;;6.00;99.90;;;5.34;100.00;99166.16;5028228;28;1294;-70
2024/01/23 10:50:34;;;;;;;;;;;6.00;99.90;;;5.31;100.00;99182.41;5030642;28;966;-70
2024/01/23 10:53:05;;;;;;;;;;;5.90;99.90;;;5.18;100.00;99188.38;5029193;28;1172;-70
2024/01/23 10:55:38;;;;;;;;;;;5.90;99.90;;;5.22;100.00;99193.56;5025479;28;1340;-70
2024/01/23 10:58:11;;;;;;;;;;;6.00;99.90;;;5.48;100.00;99204.81;5023100;28;1060;-70
2024/01/23 11:00:38;;;;;;;;;;;5.90;99.90;;;5.53;100.00;99208.28;5040417;28;1970;-71
2024/01/23 11:03:06;;;;;;;;;;;6.00;99.90;;;5.52;100.00;99206.53;5023020;28;1388;-70
2024/01/23 11:05:40;;;;;;;;;;;6.20;99.90;;;5.53;100.00;99213.41;5040681;28;1479;-71
2024/01/23 11:08:26;;;;;;;;;;;6.30;99.90;;;5.74;100.00;99218.63;5011840;28;1707;-70
2024/01/23 11:11:10;;;;;;;;;;;6.40;99.90;;;5.72;100.00;99229.78;5025963;28;1176;-70
2024/01/23 11:13:43;;;;;;;;;;;6.40;99.90;;;5.75;100.00;99240.97;5036772;28;1399;-71
2024/01/23 11:16:10;;;;;;;;;;;6.50;99.90;;;5.72;100.00;99222.91;5042114;28;1287;-70
2024/01/23 11:18:37;;;;;;;;;;;6.50;99.90;;;5.87;100.00;99216.97;5037512;28;1098;-69
2024/01/23 11:21:04;;;;;;;;;;;6.70;99.90;;;6.16;100.00;99219.63;5028727;28;1899;-70
2024/01/23 11:23:33;;;;;;;;;;;6.70;99.90;;;6.18;100.00;99217.03;5040266;28;1257;-69
2024/01/23 11:26:19;;;;;;;;;;;6.70;99.90;;;6.12;100.00;99217.06;5037939;28;1404;-70
2024/01/23 11:28:48;;;;;;;;;;;6.80;99.90;;;6.10;100.00;99218.78;5037876;28;1631;-70
2024/01/23 11:31:23;;;;;;;;;;;6.80;99.90;;;6.03;100.00;99230.78;5027077;28;1339;-70
2024/01/23 11:33:51;;;;;;;;;;;6.60;99.90;;;6.03;100.00;99236.78;5036004;28;1482;-71
2024/01/23 11:36:23;;;;;;;;;;;6.60;99.90;;;5.97;100.00;99231.63;5024147;28;1110;-70